Time;durP1;ratioP1;P1;durP2;ratioP2;P2;SDS_P1;SDS_P2;PMS_P1;PMS_P2;Temp;Humidity;BMP_temperature;BMP_pressure;BME280_temperature;BME280_humidity;BME280_pressure;Samples;Min_cycle;Max_cycle;Signal;HPM_P1;HPM_P2
2022/09/06 00:01:37;;;;;;;0.70;0.70;;;17.70;77.90;17.10;96169.00;;;;5113782;28;20198;-59
2022/09/06 00:04:04;;;;;;;1.13;1.13;;;17.70;77.10;17.20;96176.00;;;;5113696;28;20295;-59
2022/09/06 00:06:32;;;;;;;0.70;0.70;;;17.70;77.80;17.00;96175.00;;;;5113675;28;20209;-59
2022/09/06 00:09:01;;;;;;;0.60;0.60;;;17.60;77.70;17.00;96173.00;;;;5113588;28;20226;-59
2022/09/06 00:11:29;;;;;;;0.90;0.90;;;17.70;77.90;17.00;96176.00;;;;5113057;28;20205;-59
2022/09/06 00:13:57;;;;;;;1.27;1.27;;;17.50;77.40;16.90;96172.00;;;;5113515;28;20673;-57
2022/09/06 00:16:24;;;;;;;0.70;0.70;;;17.50;78.40;16.90;96170.00;;;;5113754;28;20245;-60
2022/09/06 00:18:53;;;;;;;0.60;0.60;;;17.50;78.80;16.90;96160.00;;;;5113562;28;20281;-59
2022/09/06 00:21:22;;;;;;;0.80;0.80;;;17.50;78.80;17.00;96167.00;;;;5113487;28;20221;-58
2022/09/06 00:23:49;;;;;;;1.17;1.17;;;17.60;78.40;17.00;96162.00;;;;5113433;28;20282;-57
2022/09/06 00:26:16;;;;;;;0.87;0.87;;;17.60;77.50;16.90;96168.00;;;;5095393;28;20222;-59
2022/09/06 00:28:43;;;;;;;0.87;0.87;;;17.60;78.10;16.90;96172.00;;;;5113416;28;20304;-59
2022/09/06 00:31:13;;;;;;;0.93;0.93;;;17.50;78.40;16.80;96174.00;;;;5095290;28;20313;-59
2022/09/06 00:33:40;;;;;;;1.00;1.00;;;17.50;78.70;16.70;96167.00;;;;5095536;28;20229;-59
2022/09/06 00:36:08;;;;;;;1.33;0.93;;;17.40;78.30;16.80;96170.00;;;;5113329;28;20264;-59
2022/09/06 00:38:35;;;;;;;0.93;0.93;;;17.40;79.20;16.80;96147.00;;;;5113303;28;20190;-59
2022/09/06 00:41:02;;;;;;;1.03;1.03;;;17.40;78.90;16.70;96166.00;;;;5113244;28;20648;-57
2022/09/06 00:43:29;;;;;;;1.07;1.07;;;17.30;78.90;16.70;96169.00;;;;5113095;28;20296;-59
2022/09/06 00:46:01;;;;;;;1.33;1.00;;;17.30;79.20;16.70;96155.00;;;;5113124;28;20277;-59
2022/09/06 00:48:28;;;;;;;0.87;0.87;;;17.30;79.30;16.80;96163.00;;;;5113292;28;20232;-59
2022/09/06 00:51:03;;;;;;;1.10;1.03;;;17.30;79.30;16.80;96159.00;;;;5113130;28;20655;-59
2022/09/06 00:53:32;;;;;;;1.53;1.43;;;17.30;78.20;16.70;96147.00;;;;5113174;28;20266;-59
2022/09/06 00:55:59;;;;;;;0.80;0.80;;;17.10;99.90;16.80;96163.00;;;;5113004;28;20228;-59
2022/09/06 00:58:27;;;;;;;0.67;0.67;;;17.30;79.30;16.80;96152.00;;;;5113043;28;20669;-59
2022/09/06 01:00:54;;;;;;;1.10;1.10;;;17.40;78.70;16.80;96157.00;;;;5113102;28;20223;-57
2022/09/06 01:03:23;;;;;;;0.87;0.87;;;17.40;84.70;16.80;96159.00;;;;5113174;28;20251;-59
2022/09/06 01:06:05;;;;;;;0.70;0.70;;;17.40;84.40;16.80;96161.00;;;;5112941;28;20253;-59
2022/09/06 01:08:52;;;;;;;0.90;0.90;;;17.20;78.00;16.60;96169.00;;;;5113065;28;20272;-61
2022/09/06 01:11:45;;;;;;;0.80;0.80;;;17.10;78.70;16.40;96168.00;;;;5112946;28;20217;-60
2022/09/06 01:14:29;;;;;;;1.50;1.40;;;17.10;80.10;16.30;96170.00;;;;5112876;28;20263;-59
2022/09/06 01:17:13;;;;;;;0.80;0.80;;;17.00;81.20;16.40;96178.00;;;;5112884;28;20222;-58
2022/09/06 01:20:42;;;;;;;0.83;0.83;;;17.00;81.80;16.40;96173.00;;;;5112862;28;20681;-59
2022/09/06 01:24:07;;;;;;;0.70;0.70;;;17.00;82.10;16.20;96171.00;;;;5094759;28;20328;-59
2022/09/06 01:27:18;;;;;;;5.87;0.90;;;16.80;82.70;16.30;96175.00;;;;5116212;28;20197;-59
2022/09/06 01:29:50;;;;;;;1.40;1.27;;;16.90;83.10;16.30;96175.00;;;;5116225;28;20198;-59
2022/09/06 01:32:27;;;;;;;0.70;0.70;;;16.80;83.70;16.30;96185.00;;;;5116055;28;20727;-56
2022/09/06 01:35:04;;;;;;;0.90;0.90;;;16.90;83.80;16.30;96177.00;;;;5116086;28;20204;-58
2022/09/06 01:37:33;;;;;;;1.07;1.00;;;16.90;83.90;16.20;96185.00;;;;5116021;28;20194;-59
2022/09/06 01:40:03;;;;;;;0.53;0.53;;;16.80;82.70;16.10;96180.00;;;;5115905;28;20222;-58
2022/09/06 01:42:34;;;;;;;0.80;0.80;;;16.70;83.70;16.10;96187.00;;;;5116027;28;20283;-56
2022/09/06 01:45:06;;;;;;;0.80;0.80;;;16.70;84.70;16.10;96179.00;;;;5115906;28;20300;-59
2022/09/06 01:47:45;;;;;;;0.60;0.60;;;16.70;84.40;16.10;96189.00;;;;5116007;28;20221;-59
2022/09/06 01:50:50;;;;;;;1.47;1.43;;;16.70;85.30;16.20;96199.00;;;;5115902;28;20372;-58
2022/09/06 01:53:38;;;;;;;0.70;0.70;;;16.80;85.20;16.20;96205.00;;;;5115987;28;20201;-58
2022/09/06 01:56:18;;;;;;;3.90;1.00;;;16.80;84.60;16.20;96268.00;;;;5115693;28;20672;-58
2022/09/06 01:59:09;;;;;;;0.80;0.80;;;16.80;85.00;16.00;96243.00;;;;5097753;28;20706;-59
2022/09/06 02:01:48;;;;;;;1.43;1.33;;;16.60;85.60;15.90;96247.00;;;;5115714;28;20279;-59
2022/09/06 02:04:22;;;;;;;1.27;1.27;;;16.60;86.80;16.10;96246.00;;;;5115686;28;20210;-59
2022/09/06 02:06:57;;;;;;;1.10;1.10;;;16.60;86.40;16.20;96250.00;;;;5115523;28;20233;-58
2022/09/06 02:09:28;;;;;;;0.87;0.87;;;16.70;87.30;16.10;96253.00;;;;5115553;28;20192;-59
2022/09/06 02:12:01;;;;;;;2.57;1.37;;;16.70;86.70;16.20;96241.00;;;;5115430;28;20190;-59
2022/09/06 02:14:33;;;;;;;1.17;1.17;;;16.70;87.50;16.20;96253.00;;;;5098139;28;20661;-59
2022/09/06 02:17:04;;;;;;;1.07;1.07;;;16.90;86.50;16.40;96251.00;;;;5115472;28;20296;-59
2022/09/06 02:19:38;;;;;;;0.80;0.80;;;17.00;86.70;16.50;96231.00;;;;5115428;28;20210;-57
2022/09/06 02:22:10;;;;;;;0.80;0.80;;;17.00;86.50;16.50;96239.00;;;;5115518;28;20206;-58
2022/09/06 02:24:39;;;;;;;1.33;1.23;;;17.10;85.60;16.60;96242.00;;;;5115288;28;20547;-59
2022/09/06 02:27:07;;;;;;;0.50;0.50;;;;;16.70;96219.00;;;;5115333;28;20209;-59
2022/09/06 02:29:34;;;;;;;0.67;0.67;;;;;16.60;96216.00;;;;5115229;28;20700;-60
2022/09/06 02:32:07;;;;;;;0.70;0.70;;;;;16.70;96213.00;;;;5115190;28;20233;-60
2022/09/06 02:34:37;;;;;;;0.73;0.73;;;;;16.90;96208.00;;;;5114638;28;20554;-60
2022/09/06 02:37:05;;;;;;;0.87;0.87;;;;;17.00;96204.00;;;;5115100;28;20234;-59
2022/09/06 02:39:32;;;;;;;1.27;1.17;;;;;17.00;96197.00;;;;5115171;28;20205;-59
2022/09/06 02:42:00;;;;;;;0.77;0.77;;;;;17.10;96187.00;;;;5115032;28;20214;-59
2022/09/06 02:44:27;;;;;;;1.07;1.07;;;;;17.30;96204.00;;;;5115013;28;20212;-58
2022/09/06 02:46:53;;;;;;;1.00;1.00;;;17.70;82.40;16.90;96194.00;;;;5114879;28;20300;-58
2022/09/06 02:49:23;;;;;;;0.80;0.80;;;;;16.70;96183.00;;;;5114863;28;20198;-59
2022/09/06 02:51:50;;;;;;;0.87;0.87;;;17.30;84.00;16.80;96179.00;;;;5114849;28;20214;-60
2022/09/06 02:54:16;;;;;;;0.93;0.93;;;17.40;84.20;16.80;96186.00;;;;5114812;28;20197;-59
2022/09/06 02:56:43;;;;;;;0.73;0.73;;;17.40;85.00;16.80;96178.00;;;;5114635;28;20222;-59
2022/09/06 02:59:09;;;;;;;1.07;0.90;;;17.30;84.60;16.80;96173.00;;;;5114831;28;20238;-59
2022/09/06 03:01:36;;;;;;;0.63;0.63;;;17.40;84.90;16.80;96182.00;;;;5114735;28;20228;-59
2022/09/06 03:04:03;;;;;;;0.80;0.80;;;17.40;85.20;16.80;96175.00;;;;5114839;28;20228;-59
2022/09/06 03:06:30;;;;;;;1.03;1.03;;;17.50;84.50;16.90;96178.00;;;;5114747;28;20268;-60
2022/09/06 03:08:59;;;;;;;0.97;0.97;;;17.40;85.00;16.90;96177.00;;;;5114543;28;20652;-60
2022/09/06 03:11:27;;;;;;;0.70;0.70;;;17.40;85.10;16.80;96179.00;;;;5114562;28;20221;-57
2022/09/06 03:13:54;;;;;;;1.43;1.43;;;17.40;85.20;16.60;96185.00;;;;5114510;28;20230;-59
2022/09/06 03:16:21;;;;;;;0.73;0.73;;;17.20;85.60;16.60;96182.00;;;;5096431;28;20308;-61
2022/09/06 03:18:47;;;;;;;1.03;1.03;;;17.20;86.00;16.60;96180.00;;;;5114483;28;20189;-62
2022/09/06 03:21:14;;;;;;;1.50;1.47;;;17.20;85.70;16.60;96182.00;;;;5114651;28;20206;-59
2022/09/06 03:23:41;;;;;;;2.67;2.07;;;17.20;86.50;16.70;96178.00;;;;5114523;28;20209;-61
2022/09/06 03:26:08;;;;;;;1.27;1.20;;;17.20;87.40;16.70;96175.00;;;;5114509;28;20187;-59
2022/09/06 03:28:34;;;;;;;1.10;1.10;;;17.20;85.50;16.70;96190.00;;;;5114390;28;20209;-59
2022/09/06 03:31:01;;;;;;;1.40;1.30;;;17.20;84.90;16.60;96192.00;;;;5114247;28;20722;-60
2022/09/06 03:33:27;;;;;;;1.27;1.17;;;17.20;85.60;16.60;96182.00;;;;5114272;28;20214;-60
2022/09/06 03:35:59;;;;;;;1.20;1.20;;;;;16.60;96189.00;;;;5114121;28;20232;-59
2022/09/06 03:38:29;;;;;;;1.43;1.37;;;;;16.70;96185.00;;;;5114185;28;20621;-59
2022/09/06 03:40:56;;;;;;;0.73;0.73;;;17.30;84.70;16.70;96182.00;;;;5114172;28;20190;-59
2022/09/06 03:43:24;;;;;;;0.80;0.80;;;;;16.60;96178.00;;;;5114141;28;20205;-60
2022/09/06 03:45:53;;;;;;;0.50;0.50;;;17.20;84.90;16.40;96170.00;;;;5113101;28;20550;-59
2022/09/06 03:48:25;;;;;;;1.23;1.07;;;17.10;86.90;16.40;96181.00;;;;5096251;28;20550;-59
2022/09/06 03:50:54;;;;;;;1.30;1.20;;;17.10;87.80;16.40;96184.00;;;;5113916;28;20621;-60
2022/09/06 03:53:22;;;;;;;0.80;0.80;;;16.90;86.20;16.30;96182.00;;;;5113805;28;20680;-59
2022/09/06 03:55:51;;;;;;;1.30;1.30;;;;;16.30;96173.00;;;;5113811;28;20217;-59
2022/09/06 03:58:20;;;;;;;0.60;0.60;;;;;16.40;96174.00;;;;5113808;28;20217;-59
2022/09/06 04:00:47;;;;;;;0.83;0.83;;;17.00;86.50;16.50;96180.00;;;;5113795;28;20637;-59
2022/09/06 04:03:14;;;;;;;1.20;1.10;;;17.10;85.90;16.50;96166.00;;;;5113663;28;20221;-59
2022/09/06 04:05:44;;;;;;;0.70;0.70;;;17.10;86.60;16.50;96177.00;;;;5113833;28;20216;-59
2022/09/06 04:08:13;;;;;;;0.77;0.77;;;17.10;86.80;16.50;96186.00;;;;5113636;28;20277;-60
2022/09/06 04:10:43;;;;;;;1.13;1.13;;;17.00;86.70;16.40;96185.00;;;;5113733;28;20190;-58
2022/09/06 04:13:10;;;;;;;0.53;0.53;;;17.00;87.00;16.40;96176.00;;;;5113624;28;20205;-59
2022/09/06 04:15:37;;;;;;;0.90;0.90;;;17.00;86.70;16.50;96185.00;;;;5113535;28;20220;-59
2022/09/06 04:18:04;;;;;;;0.73;0.73;;;17.00;86.70;16.40;96185.00;;;;5113792;28;20627;-60
2022/09/06 04:20:30;;;;;;;0.70;0.70;;;17.10;86.30;16.50;96174.00;;;;5113687;28;20676;-60
2022/09/06 04:22:56;;;;;;;1.07;1.07;;;17.10;87.10;16.50;96171.00;;;;5113539;28;20194;-59
2022/09/06 04:25:23;;;;;;;0.90;0.90;;;17.10;87.00;16.50;96180.00;;;;5113455;28;20285;-59
2022/09/06 04:27:49;;;;;;;0.80;0.80;;;17.10;86.90;16.60;96172.00;;;;5113492;28;20334;-59
2022/09/06 04:30:16;;;;;;;0.80;0.80;;;17.10;87.00;16.60;96176.00;;;;5095442;28;20544;-58
2022/09/06 04:32:43;;;;;;;0.70;0.70;;;17.20;86.90;16.40;96180.00;;;;5113476;28;20277;-59
2022/09/06 04:35:10;;;;;;;0.97;0.97;;;17.00;86.50;16.50;96185.00;;;;5113288;28;20286;-59
2022/09/06 04:37:36;;;;;;;1.20;1.20;;;17.00;86.70;16.20;96188.00;;;;5095427;28;20653;-59
2022/09/06 04:40:03;;;;;;;1.17;0.97;;;16.70;86.10;16.10;96189.00;;;;5113229;28;20797;-59
2022/09/06 04:42:30;;;;;;;1.00;1.00;;;16.70;87.20;16.10;96192.00;;;;5095621;28;20193;-60
2022/09/06 04:44:56;;;;;;;0.63;0.63;;;16.70;87.90;16.00;96176.00;;;;5113190;28;20214;-60
2022/09/06 04:47:24;;;;;;;1.13;1.10;;;16.60;88.00;16.00;96187.00;;;;5113294;28;20190;-60
2022/09/06 04:49:52;;;;;;;0.93;0.93;;;16.60;88.30;15.90;96174.00;;;;5113143;28;20233;-59
2022/09/06 04:52:19;;;;;;;0.60;0.60;;;16.50;88.80;16.00;96188.00;;;;5113493;28;20190;-60
2022/09/06 04:54:47;;;;;;;1.23;1.23;;;16.60;88.30;15.80;96181.00;;;;5113300;28;20221;-61
2022/09/06 04:57:14;;;;;;;0.70;0.70;;;16.60;87.70;15.90;96185.00;;;;5114641;28;20350;-61
2022/09/06 04:59:40;;;;;;;0.70;0.70;;;16.60;88.30;16.00;96184.00;;;;5116719;28;20308;-59
2022/09/06 05:02:07;;;;;;;1.03;1.03;;;16.60;88.40;16.00;96185.00;;;;5116534;28;20634;-59
2022/09/06 05:04:33;;;;;;;1.27;1.17;;;16.60;87.90;16.00;96183.00;;;;5116491;28;20300;-59
2022/09/06 05:07:02;;;;;;;0.73;0.73;;;16.60;89.20;16.10;96185.00;;;;5116739;28;20285;-59
2022/09/06 05:09:28;;;;;;;1.00;1.00;;;16.70;89.10;16.20;96190.00;;;;5116517;28;20233;-59
2022/09/06 05:11:57;;;;;;;0.70;0.70;;;16.80;87.80;16.10;96172.00;;;;5116540;28;20206;-57
2022/09/06 05:14:24;;;;;;;1.17;1.17;;;16.80;86.80;16.30;96187.00;;;;5116418;28;20325;-60
2022/09/06 05:16:53;;;;;;;0.70;0.70;;;16.80;87.30;16.30;96186.00;;;;5116399;28;20222;-59
2022/09/06 05:19:20;;;;;;;1.03;1.03;;;16.80;86.70;16.30;96189.00;;;;5116314;28;20194;-59
2022/09/06 05:21:46;;;;;;;0.77;0.77;;;16.90;86.40;16.30;96195.00;;;;5116357;28;20286;-59
2022/09/06 05:24:13;;;;;;;0.93;0.93;;;16.80;84.80;16.10;96195.00;;;;5116356;28;20232;-57
2022/09/06 05:26:40;;;;;;;0.70;0.70;;;16.70;85.60;16.10;96203.00;;;;5116246;28;20194;-59
2022/09/06 05:29:06;;;;;;;6.50;1.70;;;16.70;86.60;16.30;96187.00;;;;5116023;28;20228;-64
2022/09/06 05:31:34;;;;;;;0.70;0.70;;;16.80;86.80;16.30;96192.00;;;;5116431;28;20213;-59
2022/09/06 05:34:01;;;;;;;0.90;0.90;;;16.90;85.60;16.40;96198.00;;;;5116097;28;20191;-60
2022/09/06 05:36:29;;;;;;;1.73;1.63;;;17.00;86.20;16.50;96201.00;;;;5115970;28;20316;-59
2022/09/06 05:38:57;;;;;;;1.00;1.00;;;17.10;86.20;16.60;96196.00;;;;5116220;28;20676;-59
2022/09/06 05:41:26;;;;;;;0.70;0.70;;;17.10;85.80;16.60;96202.00;;;;5116169;28;20225;-59
2022/09/06 05:43:52;;;;;;;0.90;0.90;;;17.20;85.40;16.60;96208.00;;;;5115903;28;20288;-59
2022/09/06 05:46:19;;;;;;;0.57;0.57;;;17.20;85.20;16.70;96203.00;;;;5115815;28;20652;-59
2022/09/06 05:48:53;;;;;;;1.50;1.37;;;17.20;85.10;16.70;96204.00;;;;5098082;28;20245;-60
2022/09/06 05:51:20;;;;;;;7.13;1.57;;;17.30;84.90;16.70;96178.00;;;;5115818;28;20318;-58
2022/09/06 05:53:49;;;;;;;1.67;1.57;;;17.20;84.70;16.60;96202.00;;;;5115821;28;20263;-58
2022/09/06 05:56:16;;;;;;;0.70;0.70;;;17.20;84.70;16.60;96201.00;;;;5115564;28;20671;-58
2022/09/06 05:58:45;;;;;;;0.90;0.90;;;17.20;84.80;16.60;96211.00;;;;5097910;28;20198;-59
2022/09/06 06:01:18;;;;;;;1.33;1.23;;;17.20;84.70;16.50;96217.00;;;;5115728;28;20264;-58
2022/09/06 06:03:51;;;;;;;1.50;1.50;;;17.10;84.70;16.50;96217.00;;;;5097801;28;20254;-57
2022/09/06 06:06:21;;;;;;;0.83;0.83;;;17.10;85.30;16.50;96218.00;;;;5115527;28;20241;-61
2022/09/06 06:08:48;;;;;;;0.73;0.73;;;17.10;85.40;16.50;96204.00;;;;5114798;28;20186;-57
2022/09/06 06:11:15;;;;;;;0.70;0.70;;;17.10;85.20;16.50;96219.00;;;;5115491;28;20277;-58
2022/09/06 06:13:43;;;;;;;0.90;0.90;;;17.10;85.30;16.50;96207.00;;;;5115426;28;20324;-58
2022/09/06 06:16:12;;;;;;;1.57;1.47;;;;;16.60;96219.00;;;;5097343;28;20339;-58
2022/09/06 06:19:13;;;;;;;0.87;0.87;;;;;16.80;96223.00;;;;5115332;28;20194;-62
2022/09/06 06:21:39;;;;;;;0.57;0.57;;;17.30;85.20;16.90;96218.00;;;;5108717;28;20324;-62
2022/09/06 06:24:06;;;;;;;0.60;0.60;;;17.40;84.70;17.00;96215.00;;;;5115530;28;20259;-64
2022/09/06 06:26:36;;;;;;;7.10;1.87;;;17.50;85.30;17.20;96204.00;;;;5115194;28;20190;-63
2022/09/06 06:29:06;;;;;;;2.43;1.27;;;17.60;84.50;17.30;96215.00;;;;5115228;28;20222;-63
2022/09/06 06:31:35;;;;;;;0.77;0.77;;;17.90;83.30;17.50;96219.00;;;;5115104;28;20346;-66
2022/09/06 06:34:03;;;;;;;0.60;0.60;;;17.90;83.90;17.60;96217.00;;;;5115144;28;20237;-66
2022/09/06 06:36:32;;;;;;;1.10;1.10;;;18.20;82.00;17.80;96215.00;;;;5115041;28;20649;-58
2022/09/06 06:39:00;;;;;;;1.03;1.03;;;18.20;82.50;17.60;96230.00;;;;5114918;28;20232;-58
2022/09/06 06:41:30;;;;;;;0.80;0.80;;;18.20;82.00;17.80;96228.00;;;;5115285;28;20194;-58
2022/09/06 06:43:59;;;;;;;0.90;0.90;;;18.20;82.90;18.00;96215.00;;;;5115147;28;20231;-58
2022/09/06 06:46:28;;;;;;;0.50;0.50;;;18.50;82.60;18.30;96211.00;;;;5114999;28;20298;-58
2022/09/06 06:48:56;;;;;;;1.43;1.33;;;18.80;80.60;18.50;96211.00;;;;5096872;28;20225;-59
2022/09/06 06:51:24;;;;;;;1.27;1.27;;;;;18.60;96212.00;;;;5114875;28;20285;-58
2022/09/06 06:53:51;;;;;;;1.33;1.23;;;19.10;78.60;18.80;96215.00;;;;5114831;28;20182;-58
2022/09/06 06:56:20;;;;;;;1.10;1.00;;;19.10;78.90;18.90;96223.00;;;;5114912;28;20256;-59
2022/09/06 06:58:49;;;;;;;0.80;0.80;;;19.30;78.00;19.10;96222.00;;;;5114934;28;20227;-58
2022/09/06 07:01:18;;;;;;;0.70;0.70;;;19.60;76.80;19.30;96221.00;;;;5096797;28;20554;-60
2022/09/06 07:03:48;;;;;;;0.77;0.77;;;19.60;77.30;19.30;96219.00;;;;5096871;28;20651;-58
2022/09/06 07:06:17;;;;;;;0.70;0.70;;;19.70;75.60;19.40;96210.00;;;;5096941;28;20190;-58
2022/09/06 07:08:45;;;;;;;0.93;0.93;;;19.80;74.90;19.40;96204.00;;;;5114756;28;20286;-59
2022/09/06 07:11:15;;;;;;;0.80;0.80;;;19.90;74.80;19.50;96212.00;;;;5114673;28;20194;-59
2022/09/06 07:13:42;;;;;;;0.60;0.60;;;19.90;72.50;19.60;96211.00;;;;5114354;28;20244;-58
2022/09/06 07:16:12;;;;;;;0.80;0.80;;;20.00;72.80;19.70;96201.00;;;;5114706;28;20271;-58
2022/09/06 07:18:41;;;;;;;1.00;1.00;;;20.10;71.50;19.80;96211.00;;;;5096615;28;20373;-58
2022/09/06 07:21:10;;;;;;;2.53;1.17;;;20.30;71.60;20.00;96207.00;;;;5113241;28;20205;-57
2022/09/06 07:23:38;;;;;;;1.97;1.37;;;;;20.20;96211.00;;;;5114411;28;20206;-58
2022/09/06 07:26:05;;;;;;;1.20;1.10;;;20.50;70.20;20.20;96213.00;;;;5114281;28;20247;-58
2022/09/06 07:28:32;;;;;;;7.93;1.63;;;20.60;70.10;20.40;96219.00;;;;5096436;28;20338;-58
2022/09/06 07:31:01;;;;;;;2.73;0.97;;;;;20.60;96217.00;;;;5114311;28;20241;-60
2022/09/06 07:33:27;;;;;;;0.70;0.70;;;21.00;67.60;20.80;96216.00;;;;5114350;28;20666;-61
2022/09/06 07:35:56;;;;;;;0.73;0.73;;;21.10;67.90;21.00;96205.00;;;;5114121;28;20193;-59
2022/09/06 07:38:23;;;;;;;1.37;0.83;;;21.40;66.90;21.10;96208.00;;;;5114230;28;20194;-58
2022/09/06 07:40:54;;;;;;;0.80;0.80;;;21.50;65.10;21.20;96204.00;;;;5114185;28;20559;-59
2022/09/06 07:43:24;;;;;;;0.98;0.88;;;21.50;64.90;21.30;96197.00;;;;5113987;28;20200;-59
2022/09/06 07:45:59;;;;;;;0.98;0.95;;;21.60;64.40;21.30;96187.00;;;;5113996;28;20190;-58
2022/09/06 07:48:29;;;;;;;1.38;1.23;;;21.70;63.50;21.40;96194.00;;;;5113832;28;20304;-59
2022/09/06 07:51:02;;;;;;;0.82;0.82;;;21.80;62.80;21.60;96186.00;;;;5114027;28;20660;-58
2022/09/06 07:53:28;;;;;;;1.15;1.15;;;22.00;61.60;21.60;96189.00;;;;5113998;28;20295;-58
2022/09/06 07:55:59;;;;;;;1.08;1.08;;;22.10;61.00;21.70;96162.00;;;;5113858;28;20274;-58
2022/09/06 07:58:27;;;;;;;0.75;0.75;;;22.10;61.60;21.80;96185.00;;;;5096465;28;20512;-58
2022/09/06 08:00:54;;;;;;;1.15;1.05;;;22.20;61.70;21.80;96191.00;;;;5113880;28;20249;-59
2022/09/06 08:03:20;;;;;;;0.60;0.60;;;22.30;61.60;21.90;96197.00;;;;5113657;28;20224;-59
2022/09/06 08:05:50;;;;;;;1.17;1.10;;;22.30;61.80;21.90;96197.00;;;;5113611;28;20229;-58
2022/09/06 08:08:18;;;;;;;0.80;0.80;;;22.30;62.00;22.00;96192.00;;;;5113627;28;20250;-59
2022/09/06 08:10:49;;;;;;;0.93;0.93;;;22.40;61.50;22.10;96198.00;;;;5113656;28;20240;-59
2022/09/06 08:13:17;;;;;;;1.40;1.30;;;22.60;61.40;22.30;96199.00;;;;5113720;28;20698;-59
2022/09/06 08:15:43;;;;;;;1.05;1.05;;;22.70;61.90;22.50;96182.00;;;;5113679;28;20513;-58
2022/09/06 08:18:10;;;;;;;0.60;0.60;;;;;22.50;96187.00;;;;5095550;28;20534;-59
2022/09/06 08:20:37;;;;;;;1.05;1.05;;;22.90;60.60;22.80;96196.00;;;;5113686;28;20201;-59
2022/09/06 08:23:09;;;;;;;0.98;0.98;;;23.10;59.50;23.10;96194.00;;;;5113713;28;20225;-59
2022/09/06 08:25:35;;;;;;;0.52;0.52;;;23.40;58.10;23.00;96197.00;;;;5113602;28;20200;-59
2022/09/06 08:28:02;;;;;;;2.03;0.95;;;23.40;56.80;23.20;96197.00;;;;5113422;28;20221;-58
2022/09/06 08:30:29;;;;;;;1.48;1.38;;;23.50;56.60;23.20;96200.00;;;;5113432;28;20205;-58
2022/09/06 08:32:56;;;;;;;0.70;0.70;;;23.60;57.10;23.30;96200.00;;;;5115900;28;20670;-58
2022/09/06 08:35:24;;;;;;;1.95;1.85;;;23.70;56.50;23.60;96196.00;;;;5099113;28;20341;-59
2022/09/06 08:37:51;;;;;;;0.60;0.60;;;23.90;56.40;23.60;96194.00;;;;5117269;28;20214;-59
2022/09/06 08:40:22;;;;;;;0.80;0.80;;;23.80;55.90;23.80;96189.00;;;;5117038;28;20243;-58
2022/09/06 08:42:51;;;;;;;6.03;1.48;;;24.00;56.20;23.80;96190.00;;;;5117017;28;20184;-58
2022/09/06 08:45:18;;;;;;;0.85;0.85;;;24.10;56.80;23.90;96190.00;;;;5116986;28;20286;-59
2022/09/06 08:47:49;;;;;;;0.70;0.70;;;24.30;56.00;23.80;96178.00;;;;5116971;28;20193;-59
2022/09/06 08:50:17;;;;;;;0.70;0.70;;;24.20;55.40;23.60;96192.00;;;;5116863;28;20566;-58
2022/09/06 08:52:57;;;;;;;1.67;1.58;;;24.10;56.50;23.70;96203.00;;;;5116742;28;20197;-59
2022/09/06 08:55:35;;;;;;;11.30;1.10;;;24.10;57.20;23.60;96198.00;;;;5117039;28;20224;-59
2022/09/06 08:58:34;;;;;;;1.83;1.42;;;24.10;56.50;23.70;96181.00;;;;5116661;28;20409;-59
2022/09/06 09:01:06;;;;;;;0.50;0.50;;;24.00;56.00;24.00;96191.00;;;;5116768;28;20285;-59
2022/09/06 09:03:36;;;;;;;1.23;1.23;;;24.30;56.20;24.10;96192.00;;;;5116895;28;20237;-59
2022/09/06 09:06:08;;;;;;;0.70;0.70;;;24.40;55.80;24.30;96188.00;;;;5116698;28;20213;-59
2022/09/06 09:08:46;;;;;;;0.85;0.85;;;24.60;54.80;24.20;96196.00;;;;5098634;28;20233;-59
2022/09/06 09:11:19;;;;;;;0.63;0.63;;;24.60;54.70;24.10;96200.00;;;;5116650;28;20200;-60
2022/09/06 09:13:53;;;;;;;0.50;0.50;;;24.50;54.60;24.20;96191.00;;;;5098695;28;20288;-60
2022/09/06 09:16:21;;;;;;;2.63;1.95;;;24.50;54.90;24.30;96198.00;;;;5116461;28;20224;-59
2022/09/06 09:18:56;;;;;;;1.25;1.25;;;24.60;53.80;23.90;96192.00;;;;5116350;28;20194;-59
2022/09/06 09:21:25;;;;;;;1.00;1.00;;;24.40;55.30;24.20;96197.00;;;;5116523;28;20241;-59
2022/09/06 09:23:55;;;;;;;0.80;0.80;;;24.50;55.10;24.50;96199.00;;;;5116405;28;20249;-59
2022/09/06 09:26:27;;;;;;;1.42;0.70;;;24.70;55.40;24.90;96207.00;;;;5116246;28;20214;-59
2022/09/06 09:29:04;;;;;;;1.52;1.38;;;25.10;54.10;24.70;96208.00;;;;5116299;28;20205;-59
2022/09/06 09:31:36;;;;;;;0.50;0.50;;;25.00;52.40;24.10;96206.00;;;;5116154;28;20526;-59
2022/09/06 09:34:04;;;;;;;0.40;0.40;;;24.60;54.30;24.50;96198.00;;;;5116118;28;20221;-59
2022/09/06 09:36:31;;;;;;;0.93;0.93;;;24.70;54.40;25.00;96205.00;;;;5116072;28;20218;-59
2022/09/06 09:38:59;;;;;;;0.65;0.65;;;;;25.10;96195.00;;;;5116041;28;20501;-59
2022/09/06 09:41:29;;;;;;;0.70;0.70;;;;;25.30;96200.00;;;;5116105;28;20632;-59
2022/09/06 09:43:57;;;;;;;0.80;0.80;;;;;25.10;96189.00;;;;5115106;28;20218;-58
2022/09/06 09:46:33;;;;;;;5.00;2.00;;;;;25.80;96188.00;;;;5115943;28;20194;-59
2022/09/06 09:49:04;;;;;;;1.17;1.15;;;;;26.00;96179.00;;;;5115966;28;20672;-59
2022/09/06 09:51:35;;;;;;;2.28;2.13;;;;;26.30;96184.00;;;;5115865;28;20210;-59
2022/09/06 09:54:04;;;;;;;0.63;0.63;;;;;26.20;96175.00;;;;5098129;28;20588;-59
2022/09/06 09:56:47;;;;;;;0.70;0.70;;;26.80;45.50;26.50;96178.00;;;;5115840;28;20279;-59
2022/09/06 09:59:22;;;;;;;1.27;1.25;;;26.70;45.70;26.60;96172.00;;;;5115618;28;20345;-59
2022/09/06 10:01:56;;;;;;;2.40;1.45;;;26.90;46.00;26.70;96178.00;;;;5097702;28;20225;-59
2022/09/06 10:04:29;;;;;;;0.85;0.85;;;;;26.70;96167.00;;;;5097727;28;20665;-59
2022/09/06 10:07:11;;;;;;;0.80;0.80;;;27.00;43.40;26.70;96170.00;;;;5115647;28;20214;-59
2022/09/06 10:09:42;;;;;;;0.98;0.98;;;27.00;46.30;26.70;96176.00;;;;5115596;28;20255;-60
2022/09/06 10:12:17;;;;;;;0.63;0.63;;;27.00;44.90;26.50;96174.00;;;;5115643;28;20657;-62
2022/09/06 10:14:47;;;;;;;0.65;0.65;;;26.90;44.20;26.30;96151.00;;;;5115559;28;20221;-61
2022/09/06 10:17:30;;;;;;;0.80;0.80;;;;;26.10;96173.00;;;;5115392;28;20251;-62
2022/09/06 10:20:03;;;;;;;0.65;0.65;;;26.50;44.30;26.00;96163.00;;;;5115435;28;20202;-59
2022/09/06 10:22:32;;;;;;;0.93;0.93;;;26.30;45.30;26.00;96165.00;;;;5097612;28;20197;-59
2022/09/06 10:25:36;;;;;;;0.90;0.90;;;26.40;46.90;26.00;96158.00;;;;5115510;28;20285;-59
2022/09/06 10:28:33;;;;;;;1.38;1.25;;;26.40;48.20;26.30;96167.00;;;;5115402;28;20254;-61
2022/09/06 10:31:40;;;;;;;1.50;1.40;;;26.60;48.30;26.20;96166.00;;;;5115323;28;20313;-62
2022/09/06 10:34:36;;;;;;;0.93;0.93;;;26.50;46.90;26.00;96158.00;;;;5115358;28;20201;-58
2022/09/06 10:37:18;;;;;;;3.47;1.23;;;26.40;47.50;25.90;96158.00;;;;5114893;28;20249;-59
2022/09/06 10:39:55;;;;;;;1.48;1.02;;;26.30;47.50;25.70;96154.00;;;;5114808;28;20196;-66
2022/09/06 10:42:34;;;;;;;2.30;1.33;;;26.10;48.60;25.60;96154.00;;;;5115037;28;20760;-66
2022/09/06 10:45:23;;;;;;;1.00;1.00;;;26.00;48.70;25.50;96147.00;;;;5115028;28;20205;-64
2022/09/06 10:48:01;;;;;;;0.60;0.60;;;25.80;49.60;25.70;96144.00;;;;5096955;28;20225;-63
2022/09/06 10:50:48;;;;;;;0.50;0.50;;;26.00;50.20;26.10;96138.00;;;;5115065;28;20275;-65
2022/09/06 10:53:31;;;;;;;1.40;1.30;;;26.40;49.00;26.10;96135.00;;;;5114805;28;20772;-59
2022/09/06 10:56:09;;;;;;;8.55;1.23;;;26.40;48.60;26.20;96136.00;;;;5096768;28;20289;-59
2022/09/06 10:58:44;;;;;;;0.68;0.68;;;;;26.50;96125.00;;;;5114780;28;20749;-61
2022/09/06 11:01:24;;;;;;;1.65;1.20;;;;;26.70;96131.00;;;;5114911;28;20205;-60
2022/09/06 11:03:52;;;;;;;0.50;0.50;;;;;26.30;96121.00;;;;5114689;28;20327;-60
2022/09/06 11:06:26;;;;;;;1.58;1.42;;;;;26.20;96128.00;;;;5114867;28;20240;-59
2022/09/06 11:09:04;;;;;;;2.03;1.30;;;26.50;45.10;26.40;96140.00;;;;5114879;28;20186;-59
2022/09/06 11:11:41;;;;;;;0.82;0.82;;;26.60;45.90;26.20;96142.00;;;;5114784;28;20276;-58
2022/09/06 11:14:12;;;;;;;1.23;1.23;;;26.50;46.60;26.30;96149.00;;;;5115018;28;20767;-60
2022/09/06 11:16:48;;;;;;;0.70;0.70;;;26.50;45.80;27.10;96139.00;;;;5114719;28;20302;-60
2022/09/06 11:19:21;;;;;;;2.50;1.75;;;;;26.30;96137.00;;;;5114654;28;20209;-60
2022/09/06 11:22:23;;;;;;;0.63;0.63;;;;;26.70;96123.00;;;;5114599;28;20337;-60
2022/09/06 11:25:35;;;;;;;0.65;0.65;;;26.90;44.20;27.50;96136.00;;;;5114448;28;20197;-59